Terminal Aerodrome Forecast
Issued by NWS

Home | Current Version | Previous Version | Text Only | Print | Product List | Glossary On
Versions: 1 2 3 4 5 6 7 8 9 10 11 12 13 14 15 16 17 18 19 20 21
000
FTUS41 KPBZ 161131
TAFZZV
TAF
KZZV 161131Z 1612/1712 24006KT 4SM -SN SCT025 OVC040
     FM161400 27008KT 6SM -SN OVC025
     FM162000 26008KT P6SM BKN035
     FM170300 28005KT P6SM OVC025=

USA.gov is the U.S. government's official web portal to all federal, state and local government web resources and services.